createdAt,value
2016-07-19T16:54:28.037Z,1008.57
2016-07-19T16:55:28.053Z,1008.59
2016-07-19T16:56:28.070Z,1008.59
2016-07-19T16:57:39.242Z,1008.55
2016-07-19T16:58:39.262Z,1008.58
2016-07-19T16:59:39.279Z,1008.57
2016-07-19T17:00:39.297Z,1008.57
2016-07-19T17:01:39.315Z,1008.57
2016-07-19T17:02:39.336Z,1008.54
2016-07-19T17:03:39.354Z,1008.57
2016-07-19T17:05:38.243Z,1008.54
2016-07-19T17:06:38.260Z,1008.57
2016-07-19T17:07:38.283Z,1008.61
2016-07-19T17:08:38.302Z,1008.55
2016-07-19T17:09:38.325Z,1008.56
2016-07-19T17:10:38.345Z,1008.61
2016-07-19T17:11:38.364Z,1008.57
2016-07-19T17:12:38.387Z,1008.6
2016-07-19T17:13:38.406Z,1008.59
2016-07-19T17:14:38.428Z,1008.56
2016-07-19T17:15:38.448Z,1008.57
2016-07-19T17:16:38.470Z,1008.61
2016-07-19T17:17:38.491Z,1008.61
2016-07-19T17:18:38.510Z,1008.59
2016-07-19T17:19:38.533Z,1008.58
2016-07-19T17:20:38.561Z,1008.6
2016-07-19T17:21:38.577Z,1008.59
2016-07-19T17:22:38.597Z,1008.57
2016-07-19T17:23:38.619Z,1008.59
2016-07-19T17:24:38.639Z,1008.63
2016-07-19T17:25:38.662Z,1008.58
2016-07-19T17:26:38.683Z,1008.58
2016-07-19T17:27:38.704Z,1008.59
2016-07-19T17:28:38.727Z,1008.59
2016-07-19T17:29:38.747Z,1008.59
2016-07-19T17:30:38.781Z,1008.58
2016-07-19T17:31:38.789Z,1008.55
2016-07-19T17:32:38.810Z,1008.58
2016-07-19T17:33:38.835Z,1008.58
2016-07-19T17:34:38.860Z,1008.58
2016-07-19T17:35:38.875Z,1008.56
2016-07-19T17:36:38.897Z,1008.57
2016-07-19T17:37:38.918Z,1008.54
2016-07-19T17:38:38.942Z,1008.57
2016-07-19T17:39:38.963Z,1008.54
2016-07-19T17:40:38.983Z,1008.57
2016-07-19T17:41:39.005Z,1008.54
2016-07-19T17:42:39.028Z,1008.54
2016-07-19T17:43:39.048Z,1008.52
2016-07-19T17:44:39.070Z,1008.54
2016-07-19T17:45:39.095Z,1008.52
2016-07-19T17:46:39.112Z,1008.51
2016-07-19T17:47:39.135Z,1008.49
2016-07-19T17:48:39.155Z,1008.5
2016-07-19T17:49:39.177Z,1008.5
2016-07-19T17:50:39.199Z,1008.53
2016-07-19T17:51:39.221Z,1008.51
2016-07-19T17:52:39.241Z,1008.55
2016-07-19T17:53:39.263Z,1008.58
2016-07-19T17:54:39.285Z,1008.58
2016-07-19T17:55:39.307Z,1008.59
2016-07-19T17:56:39.328Z,1008.61
2016-07-19T17:57:39.351Z,1008.57
2016-07-19T17:58:39.370Z,1008.57
2016-07-19T17:59:39.391Z,1008.54
2016-07-19T18:00:39.413Z,1008.55
2016-07-19T18:01:39.435Z,1008.54
2016-07-19T18:02:39.458Z,1008.55
2016-07-19T18:03:39.479Z,1008.52
2016-07-19T18:04:39.501Z,1008.57
2016-07-19T18:05:39.523Z,1008.58
2016-07-19T18:06:39.543Z,1008.57
2016-07-19T18:07:39.563Z,1008.56
2016-07-19T18:08:39.586Z,1008.53
2016-07-19T18:09:39.610Z,1008.57
2016-07-19T18:10:39.635Z,1008.54
2016-07-19T18:11:39.650Z,1008.59
2016-07-19T18:12:39.673Z,1008.58
2016-07-19T18:13:39.695Z,1008.58
2016-07-19T18:14:39.716Z,1008.62
2016-07-19T18:15:39.737Z,1008.61
2016-07-19T18:16:39.759Z,1008.61
2016-07-19T18:17:39.781Z,1008.63
2016-07-19T18:18:39.802Z,1008.62
2016-07-19T18:19:39.821Z,1008.64
2016-07-19T18:20:39.845Z,1008.62
2016-07-19T18:21:39.871Z,1008.65
2016-07-19T18:22:39.886Z,1008.64
2016-07-19T18:23:39.909Z,1008.68
2016-07-19T18:24:39.932Z,1008.67
2016-07-19T18:25:39.952Z,1008.66
2016-07-19T18:26:39.975Z,1008.65
2016-07-19T18:27:39.995Z,1008.64
2016-07-19T18:28:40.020Z,1008.69
2016-07-19T18:29:40.036Z,1008.67
2016-07-19T18:30:40.059Z,1008.67
2016-07-19T18:31:40.083Z,1008.68
2016-07-19T18:32:40.103Z,1008.65
2016-07-19T18:33:40.125Z,1008.66
2016-07-19T18:34:40.146Z,1008.65
2016-07-19T18:35:40.167Z,1008.66
2016-07-19T18:36:40.188Z,1008.68
2016-07-19T18:37:40.210Z,1008.67
2016-07-19T18:38:40.231Z,1008.67
2016-07-19T18:39:40.254Z,1008.68
2016-07-19T18:40:40.275Z,1008.68
2016-07-19T18:41:40.296Z,1008.69
2016-07-19T18:42:40.319Z,1008.71
2016-07-19T18:43:40.341Z,1008.72
2016-07-19T18:44:40.363Z,1008.71
2016-07-19T18:45:40.385Z,1008.75
2016-07-19T18:46:40.412Z,1008.72
2016-07-19T18:47:40.426Z,1008.73
2016-07-19T18:48:40.452Z,1008.75
2016-07-19T18:49:40.470Z,1008.74
2016-07-19T18:50:40.491Z,1008.76
2016-07-19T18:51:40.513Z,1008.72
2016-07-19T18:52:40.533Z,1008.74
2016-07-19T18:53:40.557Z,1008.75
2016-07-19T18:54:40.577Z,1008.75
2016-07-19T18:55:40.599Z,1008.79
2016-07-19T18:56:40.620Z,1008.8
2016-07-19T18:57:40.643Z,1008.75
2016-07-19T18:58:40.665Z,1008.79
2016-07-19T18:59:40.685Z,1008.82
2016-07-19T19:00:40.708Z,1008.83
2016-07-19T19:01:40.729Z,1008.83
2016-07-19T19:02:40.750Z,1008.79
2016-07-19T19:03:40.772Z,1008.84
2016-07-19T19:04:40.792Z,1008.83
2016-07-19T19:05:40.815Z,1008.85
2016-07-19T19:06:40.837Z,1008.83
2016-07-19T19:07:40.859Z,1008.86
2016-07-19T19:08:40.878Z,1008.84
2016-07-19T19:09:40.901Z,1008.85
2016-07-19T19:10:40.921Z,1008.86
2016-07-19T19:11:40.942Z,1008.86
2016-07-19T19:12:40.968Z,1008.84
2016-07-19T19:13:40.986Z,1008.83
2016-07-19T19:14:41.008Z,1008.82
2016-07-19T19:15:41.030Z,1008.84
2016-07-19T19:16:41.050Z,1008.85
2016-07-19T19:17:41.071Z,1008.88
2016-07-19T19:18:41.095Z,1008.89
2016-07-19T19:19:41.116Z,1008.93
2016-07-19T19:20:41.136Z,1008.9
2016-07-19T19:21:41.161Z,1008.94
2016-07-19T19:22:41.181Z,1008.96
2016-07-19T19:23:41.199Z,1008.95
2016-07-19T19:24:41.223Z,1008.96
2016-07-19T19:25:41.245Z,1008.96
2016-07-19T19:26:41.265Z,1008.97
2016-07-19T19:27:41.287Z,1008.93
2016-07-19T19:28:41.309Z,1008.97
2016-07-19T19:29:41.333Z,1008.94
2016-07-19T19:30:41.353Z,1008.97
2016-07-19T19:31:41.372Z,1008.93
2016-07-19T19:32:41.396Z,1008.94
2016-07-19T19:33:41.418Z,1008.96
2016-07-19T19:34:41.437Z,1008.95
2016-07-19T19:35:41.459Z,1008.96
2016-07-19T19:36:41.481Z,1008.96
2016-07-19T19:37:41.504Z,1008.99
2016-07-19T19:38:41.522Z,1008.97
2016-07-19T19:39:41.546Z,1008.96
2016-07-19T19:40:41.568Z,1008.99
2016-07-19T19:41:41.589Z,1009.01
2016-07-19T19:42:41.611Z,1009.02
2016-07-19T19:43:41.632Z,1009.02
2016-07-19T19:44:41.654Z,1009
2016-07-19T19:45:41.673Z,1009.04
2016-07-19T19:46:41.696Z,1009.06
2016-07-19T19:47:41.717Z,1009.03
2016-07-19T19:48:41.739Z,1009.04
2016-07-19T19:49:41.761Z,1009.08
2016-07-19T19:50:41.782Z,1009.06
2016-07-19T19:51:41.804Z,1009.03
2016-07-19T19:52:41.825Z,1009.07
2016-07-19T19:53:41.845Z,1009.09
2016-07-19T19:54:41.868Z,1009.06
2016-07-19T19:55:41.891Z,1009.07
2016-07-19T19:56:41.911Z,1009.06
2016-07-19T19:57:41.933Z,1009.05
2016-07-19T19:58:41.955Z,1009.1
2016-07-19T19:59:41.977Z,1009.08
2016-07-19T20:00:41.998Z,1009.09
2016-07-19T20:01:42.018Z,1009.09
2016-07-19T20:02:42.042Z,1009.13
2016-07-19T20:03:42.063Z,1009.1
2016-07-19T20:04:42.083Z,1009.12
2016-07-19T20:05:42.106Z,1009.14
2016-07-19T20:06:42.128Z,1009.11
2016-07-19T20:07:42.148Z,1009.09
2016-07-19T20:08:42.175Z,1009.14
2016-07-19T20:09:42.191Z,1009.11
2016-07-19T20:10:42.212Z,1009.11
2016-07-19T20:11:42.235Z,1009.13
2016-07-19T20:12:42.255Z,1009.13
2016-07-19T20:13:42.277Z,1009.17
2016-07-19T20:14:42.299Z,1009.15
2016-07-19T20:15:42.322Z,1009.12
2016-07-19T20:16:42.342Z,1009.19
2016-07-19T20:17:42.365Z,1009.18
2016-07-19T20:18:42.386Z,1009.14
2016-07-19T20:19:42.408Z,1009.17
2016-07-19T20:20:42.428Z,1009.19
2016-07-19T20:21:42.450Z,1009.2
2016-07-19T20:22:42.472Z,1009.21
2016-07-19T20:23:42.495Z,1009.19
2016-07-19T20:24:42.516Z,1009.2
2016-07-19T20:25:42.535Z,1009.2
2016-07-19T20:26:42.557Z,1009.17
2016-07-19T20:27:42.579Z,1009.21
2016-07-19T20:28:42.600Z,1009.17
2016-07-19T20:29:42.625Z,1009.21
2016-07-19T20:30:42.643Z,1009.2
2016-07-19T20:31:42.666Z,1009.19
2016-07-19T20:32:42.688Z,1009.19
2016-07-19T20:33:42.708Z,1009.16
2016-07-19T20:34:42.732Z,1009.12
2016-07-19T20:35:42.752Z,1009.1
2016-07-19T20:36:42.774Z,1009.16
2016-07-19T20:37:42.794Z,1009.19
2016-07-19T20:38:42.818Z,1009.1
2016-07-19T20:39:42.841Z,1009.12
2016-07-19T20:40:42.860Z,1009.13
2016-07-19T20:41:42.883Z,1009.19
2016-07-19T20:42:42.900Z,1009.16
2016-07-19T20:43:42.924Z,1009.07
2016-07-19T20:44:42.944Z,1009.09
2016-07-19T20:45:42.969Z,1009.1
2016-07-19T20:46:42.989Z,1009.07
2016-07-19T20:47:43.009Z,1009.12
2016-07-19T20:48:43.029Z,1009.09
2016-07-19T20:49:43.052Z,1009.05
2016-07-19T20:50:43.074Z,1009.07
2016-07-19T20:51:43.094Z,1009.1
2016-07-19T20:52:43.118Z,1009.13
2016-07-19T20:53:43.142Z,1009.15
2016-07-19T20:54:43.160Z,1009.13
2016-07-19T20:55:43.180Z,1009.14
2016-07-19T20:56:43.202Z,1009.14
2016-07-19T20:57:43.225Z,1009.15
2016-07-19T20:58:43.247Z,1009.17
2016-07-19T20:59:43.268Z,1009.18
2016-07-19T21:00:43.289Z,1009.22
2016-07-19T21:01:43.310Z,1009.21
2016-07-19T21:02:43.332Z,1009.18
2016-07-19T21:03:43.354Z,1009.16
2016-07-19T21:04:43.376Z,1009.1
2016-07-19T21:05:43.395Z,1009.15
2016-07-19T21:06:43.417Z,1009.14
2016-07-19T21:07:43.439Z,1009.15
2016-07-19T21:08:43.463Z,1009.17
2016-07-19T21:09:43.481Z,1009.14
2016-07-19T21:10:43.502Z,1009.17
2016-07-19T21:11:43.524Z,1009.19
2016-07-19T21:12:43.547Z,1009.23
2016-07-19T21:13:43.567Z,1009.23
2016-07-19T21:14:43.588Z,1009.2
2016-07-19T21:15:43.610Z,1009.19
2016-07-19T21:16:43.632Z,1009.16
2016-07-19T21:17:43.654Z,1009.15
2016-07-19T21:18:43.674Z,1009.16
2016-07-19T21:19:43.698Z,1009.19
2016-07-19T21:20:43.718Z,1009.15
2016-07-19T21:21:43.739Z,1009.18
2016-07-19T21:22:43.760Z,1009.1
2016-07-19T21:23:43.780Z,1009.14
2016-07-19T21:24:43.803Z,1009.13
2016-07-19T21:25:43.826Z,1009.22
2016-07-19T21:26:43.847Z,1009.18
2016-07-19T21:27:43.867Z,1009.11
2016-07-19T21:28:43.889Z,1009.19
2016-07-19T21:29:43.911Z,1009.2
2016-07-19T21:30:43.932Z,1009.2
2016-07-19T21:31:43.953Z,1009.2
2016-07-19T21:32:43.973Z,1009.2
2016-07-19T21:33:44.000Z,1009.21
2016-07-19T21:34:44.018Z,1009.21
2016-07-19T21:35:44.039Z,1009.23
2016-07-19T21:36:44.062Z,1009.25
2016-07-19T21:37:44.082Z,1009.28
2016-07-19T21:38:44.104Z,1009.24
2016-07-19T21:39:44.126Z,1009.24
2016-07-19T21:40:44.145Z,1009.21
2016-07-19T21:41:44.168Z,1009.21
2016-07-19T21:42:44.187Z,1009.25
2016-07-19T21:43:44.211Z,1009.27
2016-07-19T21:44:44.232Z,1009.23
2016-07-19T21:45:44.253Z,1009.24
2016-07-19T21:46:44.275Z,1009.27
2016-07-19T21:47:44.295Z,1009.26
2016-07-19T21:48:44.317Z,1009.25
2016-07-19T21:49:44.338Z,1009.23
2016-07-19T21:50:44.362Z,1009.21
2016-07-19T21:51:44.383Z,1009.19
2016-07-19T21:52:44.403Z,1009.2
2016-07-19T21:53:44.424Z,1009.24
2016-07-19T21:54:44.447Z,1009.22
2016-07-19T21:55:44.468Z,1009.25
2016-07-19T21:56:44.489Z,1009.27
2016-07-19T21:57:44.513Z,1009.26
2016-07-19T21:58:44.533Z,1009.26
2016-07-19T21:59:44.553Z,1009.25
2016-07-19T22:00:44.574Z,1009.22
2016-07-19T22:01:44.597Z,1009.26
2016-07-19T22:02:44.619Z,1009.29
2016-07-19T22:03:44.641Z,1009.25
2016-07-19T22:04:44.662Z,1009.23
2016-07-19T22:05:44.682Z,1009.24
2016-07-19T22:06:44.703Z,1009.25
2016-07-19T22:07:44.724Z,1009.18
2016-07-19T22:08:44.746Z,1009.19
2016-07-19T22:09:44.767Z,1009.2
2016-07-19T22:10:44.790Z,1009.24
2016-07-19T22:11:44.811Z,1009.22
2016-07-19T22:12:44.831Z,1009.22
2016-07-19T22:13:44.853Z,1009.24
2016-07-19T22:14:44.876Z,1009.22
2016-07-19T22:15:44.895Z,1009.27
2016-07-19T22:16:44.915Z,1009.26
2016-07-19T22:17:44.948Z,1009.3
2016-07-19T22:18:44.962Z,1009.33
2016-07-19T22:19:44.980Z,1009.3
2016-07-19T22:20:45.006Z,1009.33
2016-07-19T22:21:45.025Z,1009.32
2016-07-19T22:22:45.045Z,1009.33
2016-07-19T22:23:45.068Z,1009.31
2016-07-19T22:24:45.089Z,1009.31
2016-07-19T22:25:45.109Z,1009.35
2016-07-19T22:26:45.131Z,1009.33
2016-07-19T22:27:45.153Z,1009.32
2016-07-19T22:28:45.174Z,1009.3
2016-07-19T22:29:45.195Z,1009.29
2016-07-19T22:30:45.220Z,1009.37
2016-07-19T22:31:45.239Z,1009.32
2016-07-19T22:32:45.261Z,1009.32
2016-07-19T22:33:45.281Z,1009.32
2016-07-19T22:34:45.300Z,1009.31
2016-07-19T22:35:45.323Z,1009.31
2016-07-19T22:36:45.345Z,1009.32
2016-07-19T22:37:45.365Z,1009.26
2016-07-19T22:38:45.389Z,1009.24
2016-07-19T22:39:45.409Z,1009.21
2016-07-19T22:40:45.431Z,1009.27
2016-07-19T22:41:45.452Z,1009.25
2016-07-19T22:42:45.473Z,1009.23
2016-07-19T22:43:45.493Z,1009.26
2016-07-19T22:44:45.516Z,1009.27
2016-07-19T22:45:45.536Z,1009.22
2016-07-19T22:46:45.558Z,1009.23
2016-07-19T22:47:45.580Z,1009.26
2016-07-19T22:48:45.600Z,1009.26
2016-07-19T22:49:45.624Z,1009.24
2016-07-19T22:50:45.646Z,1009.23
2016-07-19T22:51:45.664Z,1009.26
2016-07-19T22:52:45.685Z,1009.25
2016-07-19T22:53:45.708Z,1009.25
2016-07-19T22:54:45.728Z,1009.22
2016-07-19T22:55:45.751Z,1009.24
2016-07-19T22:56:45.770Z,1009.25
2016-07-19T22:57:45.792Z,1009.22
2016-07-19T22:58:45.814Z,1009.2
2016-07-19T22:59:45.835Z,1009.17
2016-07-19T23:00:45.859Z,1009.15
2016-07-19T23:01:45.879Z,1009.21
2016-07-19T23:02:45.900Z,1009.18
2016-07-19T23:03:45.922Z,1009.15
2016-07-19T23:04:45.943Z,1009.18
2016-07-19T23:05:45.963Z,1009.19
2016-07-19T23:06:45.985Z,1009.15
2016-07-19T23:07:46.007Z,1009.19
2016-07-19T23:08:46.028Z,1009.21
2016-07-19T23:09:46.049Z,1009.21
2016-07-19T23:10:46.071Z,1009.23
2016-07-19T23:11:46.091Z,1009.18
2016-07-19T23:12:46.113Z,1009.21
2016-07-19T23:13:46.134Z,1009.23
2016-07-19T23:14:46.155Z,1009.21
2016-07-19T23:15:46.177Z,1009.22
2016-07-19T23:16:46.199Z,1009.24
2016-07-19T23:17:46.219Z,1009.18
2016-07-19T23:18:46.241Z,1009.16
2016-07-19T23:19:46.263Z,1009.19
2016-07-19T23:20:46.285Z,1009.18
2016-07-19T23:21:46.303Z,1009.12
2016-07-19T23:22:46.327Z,1009.11
2016-07-19T23:23:46.348Z,1009.15
2016-07-19T23:24:46.370Z,1009.16
2016-07-19T23:25:46.392Z,1009.08
2016-07-19T23:26:46.412Z,1009.09
2016-07-19T23:27:46.435Z,1009.15
2016-07-19T23:28:46.454Z,1009.17
2016-07-19T23:29:46.478Z,1009.17
2016-07-19T23:30:46.501Z,1009.16
2016-07-19T23:31:46.518Z,1009.13
2016-07-19T23:32:46.540Z,1009.16
2016-07-19T23:33:46.563Z,1009.13
2016-07-19T23:34:46.582Z,1009.16
2016-07-19T23:35:46.603Z,1009.14
2016-07-19T23:36:46.628Z,1009.14
2016-07-19T23:37:46.646Z,1009.12
2016-07-19T23:38:46.667Z,1009.14
2016-07-19T23:39:46.689Z,1009.16
2016-07-19T23:40:46.710Z,1009.14
2016-07-19T23:41:46.730Z,1009.16
2016-07-19T23:42:46.754Z,1009.16
2016-07-19T23:43:46.779Z,1009.19
2016-07-19T23:44:46.795Z,1009.18
2016-07-19T23:45:46.816Z,1009.19
2016-07-19T23:46:46.838Z,1009.17
2016-07-19T23:47:46.859Z,1009.14
2016-07-19T23:48:46.881Z,1009.16
2016-07-19T23:49:46.903Z,1009.15
2016-07-19T23:50:46.924Z,1009.18
2016-07-19T23:51:46.944Z,1009.17
2016-07-19T23:52:46.966Z,1009.22
2016-07-19T23:53:46.989Z,1009.23
2016-07-19T23:54:47.008Z,1009.18
2016-07-19T23:55:47.030Z,1009.17
2016-07-19T23:56:47.051Z,1009.17
2016-07-19T23:57:47.072Z,1009.21
2016-07-19T23:58:47.092Z,1009.19
2016-07-19T23:59:47.114Z,1009.18
